Capitol Logistics 2183

Operating for AJT



KSMF
Sacramento International Airport
Sacramento, California
KPHL
Philadelphia International Airport
Philadelphia, Pennsylvania

Activity Log

Date Flight Route Aircraft Duration
No Flights Yet

Route Details

Aircraft Information
Primary: Boeing 767-300BDSF
Backup: Boeing 757-200SF
Route Data
Distance: 2133nm
Duration: 4h 46m
Recm'd Route: SCTWN3 MACUS BAM J94 BFF J94 DBQ J94 OBK J584 CRL J34 DJB JST BOJID2
Origin Wx: KSMF 180253Z 36009KT 10SM CLR 24/M03 A2997 RMK AO2 SLP147 T02391028 53006
Dest. Wx: KPHL 180254Z 01005KT 10SM OVC060 12/03 A2985 RMK AO2 SLP107 T01170028 51012
Notes: